sensor_id;sensor_type;location;lat;lon;timestamp;P1;durP1;ratioP1;P2;durP2;ratioP2
55330;SDS011;58851;42.984;20.336;2024-02-23T00:01:16;165.57;;;95.93;;
55330;SDS011;58851;42.984;20.336;2024-02-23T00:03:42;191.52;;;114.00;;
55330;SDS011;58851;42.984;20.336;2024-02-23T00:06:08;173.15;;;107.05;;
55330;SDS011;58851;42.984;20.336;2024-02-23T00:08:34;163.32;;;97.85;;
55330;SDS011;58851;42.984;20.336;2024-02-23T00:11:00;168.02;;;97.43;;
55330;SDS011;58851;42.984;20.336;2024-02-23T00:13:25;143.85;;;80.93;;
55330;SDS011;58851;42.984;20.336;2024-02-23T00:15:51;136.52;;;80.97;;
55330;SDS011;58851;42.984;20.336;2024-02-23T00:18:17;132.38;;;83.72;;
55330;SDS011;58851;42.984;20.336;2024-02-23T00:20:43;139.70;;;82.40;;
55330;SDS011;58851;42.984;20.336;2024-02-23T00:23:09;162.82;;;93.05;;
55330;SDS011;58851;42.984;20.336;2024-02-23T00:25:34;146.93;;;92.43;;
55330;SDS011;58851;42.984;20.336;2024-02-23T00:28:00;160.88;;;98.40;;
55330;SDS011;58851;42.984;20.336;2024-02-23T00:30:26;163.55;;;94.53;;
55330;SDS011;58851;42.984;20.336;2024-02-23T00:32:52;168.57;;;95.20;;
55330;SDS011;58851;42.984;20.336;2024-02-23T00:35:18;154.52;;;90.75;;
55330;SDS011;58851;42.984;20.336;2024-02-23T00:37:44;152.85;;;96.30;;
55330;SDS011;58851;42.984;20.336;2024-02-23T00:40:10;152.32;;;96.72;;
55330;SDS011;58851;42.984;20.336;2024-02-23T00:42:36;141.70;;;91.95;;
55330;SDS011;58851;42.984;20.336;2024-02-23T00:45:02;128.15;;;78.40;;
55330;SDS011;58851;42.984;20.336;2024-02-23T00:47:30;137.18;;;83.15;;
55330;SDS011;58851;42.984;20.336;2024-02-23T00:49:55;137.70;;;83.50;;
55330;SDS011;58851;42.984;20.336;2024-02-23T00:52:21;148.00;;;92.97;;
55330;SDS011;58851;42.984;20.336;2024-02-23T00:54:47;154.88;;;97.22;;
55330;SDS011;58851;42.984;20.336;2024-02-23T00:57:13;170.95;;;104.50;;
55330;SDS011;58851;42.984;20.336;2024-02-23T00:59:38;164.07;;;103.68;;
55330;SDS011;58851;42.984;20.336;2024-02-23T01:02:04;150.30;;;87.53;;
55330;SDS011;58851;42.984;20.336;2024-02-23T01:04:30;150.35;;;89.13;;
55330;SDS011;58851;42.984;20.336;2024-02-23T01:06:56;141.90;;;86.68;;
55330;SDS011;58851;42.984;20.336;2024-02-23T01:09:23;169.32;;;102.82;;
55330;SDS011;58851;42.984;20.336;2024-02-23T01:11:48;156.77;;;96.70;;
55330;SDS011;58851;42.984;20.336;2024-02-23T01:14:14;166.98;;;100.38;;
55330;SDS011;58851;42.984;20.336;2024-02-23T01:16:40;169.35;;;102.50;;
55330;SDS011;58851;42.984;20.336;2024-02-23T01:19:06;176.10;;;104.32;;
55330;SDS011;58851;42.984;20.336;2024-02-23T01:21:32;167.13;;;101.38;;
55330;SDS011;58851;42.984;20.336;2024-02-23T01:23:58;183.07;;;108.03;;
55330;SDS011;58851;42.984;20.336;2024-02-23T01:26:25;176.40;;;110.00;;
55330;SDS011;58851;42.984;20.336;2024-02-23T01:28:52;187.88;;;109.72;;
55330;SDS011;58851;42.984;20.336;2024-02-23T01:31:18;200.45;;;118.82;;
55330;SDS011;58851;42.984;20.336;2024-02-23T01:33:44;190.80;;;114.47;;
55330;SDS011;58851;42.984;20.336;2024-02-23T01:36:10;183.38;;;111.78;;
55330;SDS011;58851;42.984;20.336;2024-02-23T01:38:36;180.13;;;109.72;;
55330;SDS011;58851;42.984;20.336;2024-02-23T01:41:02;188.18;;;110.03;;
55330;SDS011;58851;42.984;20.336;2024-02-23T01:43:29;195.00;;;118.78;;
55330;SDS011;58851;42.984;20.336;2024-02-23T01:45:54;182.90;;;107.90;;
55330;SDS011;58851;42.984;20.336;2024-02-23T01:48:20;178.38;;;111.88;;
55330;SDS011;58851;42.984;20.336;2024-02-23T01:50:46;207.73;;;122.97;;
55330;SDS011;58851;42.984;20.336;2024-02-23T01:53:12;252.90;;;140.85;;
55330;SDS011;58851;42.984;20.336;2024-02-23T01:55:42;224.02;;;126.18;;
55330;SDS011;58851;42.984;20.336;2024-02-23T01:58:09;205.27;;;119.63;;
55330;SDS011;58851;42.984;20.336;2024-02-23T02:00:35;203.90;;;113.80;;
55330;SDS011;58851;42.984;20.336;2024-02-23T02:03:02;188.13;;;107.97;;
55330;SDS011;58851;42.984;20.336;2024-02-23T02:05:28;203.95;;;116.95;;
55330;SDS011;58851;42.984;20.336;2024-02-23T02:07:54;195.57;;;112.88;;
55330;SDS011;58851;42.984;20.336;2024-02-23T02:10:24;207.75;;;119.95;;
55330;SDS011;58851;42.984;20.336;2024-02-23T02:12:51;189.63;;;112.47;;
55330;SDS011;58851;42.984;20.336;2024-02-23T02:15:17;210.45;;;122.47;;
55330;SDS011;58851;42.984;20.336;2024-02-23T02:17:43;219.00;;;128.18;;
55330;SDS011;58851;42.984;20.336;2024-02-23T02:20:12;230.93;;;130.98;;
55330;SDS011;58851;42.984;20.336;2024-02-23T02:22:38;246.43;;;144.32;;
55330;SDS011;58851;42.984;20.336;2024-02-23T02:25:05;246.30;;;141.40;;
55330;SDS011;58851;42.984;20.336;2024-02-23T02:27:31;236.80;;;134.30;;
55330;SDS011;58851;42.984;20.336;2024-02-23T02:29:58;253.05;;;152.25;;
55330;SDS011;58851;42.984;20.336;2024-02-23T02:32:23;269.70;;;158.55;;
55330;SDS011;58851;42.984;20.336;2024-02-23T02:34:49;237.60;;;135.15;;
55330;SDS011;58851;42.984;20.336;2024-02-23T02:37:15;237.77;;;137.98;;
55330;SDS011;58851;42.984;20.336;2024-02-23T02:39:41;225.90;;;140.43;;
55330;SDS011;58851;42.984;20.336;2024-02-23T02:42:07;251.55;;;142.55;;
55330;SDS011;58851;42.984;20.336;2024-02-23T02:44:33;231.75;;;137.48;;
55330;SDS011;58851;42.984;20.336;2024-02-23T02:46:59;228.90;;;139.43;;
55330;SDS011;58851;42.984;20.336;2024-02-23T02:49:25;229.85;;;137.32;;
55330;SDS011;58851;42.984;20.336;2024-02-23T02:51:52;264.13;;;150.15;;
55330;SDS011;58851;42.984;20.336;2024-02-23T02:54:18;266.58;;;157.65;;
55330;SDS011;58851;42.984;20.336;2024-02-23T02:56:44;263.05;;;156.02;;
55330;SDS011;58851;42.984;20.336;2024-02-23T02:59:11;250.85;;;151.93;;
55330;SDS011;58851;42.984;20.336;2024-02-23T03:01:37;261.50;;;150.90;;
55330;SDS011;58851;42.984;20.336;2024-02-23T03:04:04;240.95;;;144.15;;
55330;SDS011;58851;42.984;20.336;2024-02-23T03:06:30;215.55;;;130.93;;
55330;SDS011;58851;42.984;20.336;2024-02-23T03:08:56;198.15;;;120.72;;
55330;SDS011;58851;42.984;20.336;2024-02-23T03:11:22;183.73;;;114.65;;
55330;SDS011;58851;42.984;20.336;2024-02-23T03:13:47;175.75;;;108.38;;
55330;SDS011;58851;42.984;20.336;2024-02-23T03:16:17;196.40;;;117.75;;
55330;SDS011;58851;42.984;20.336;2024-02-23T03:18:43;217.95;;;133.90;;
55330;SDS011;58851;42.984;20.336;2024-02-23T03:21:09;221.07;;;136.88;;
55330;SDS011;58851;42.984;20.336;2024-02-23T03:23:35;223.85;;;139.98;;
55330;SDS011;58851;42.984;20.336;2024-02-23T03:26:01;229.13;;;139.45;;
55330;SDS011;58851;42.984;20.336;2024-02-23T03:28:27;224.45;;;138.82;;
55330;SDS011;58851;42.984;20.336;2024-02-23T03:30:53;196.15;;;122.25;;
55330;SDS011;58851;42.984;20.336;2024-02-23T03:33:19;202.75;;;123.40;;
55330;SDS011;58851;42.984;20.336;2024-02-23T03:35:45;197.80;;;124.57;;
55330;SDS011;58851;42.984;20.336;2024-02-23T03:38:11;206.15;;;124.80;;
55330;SDS011;58851;42.984;20.336;2024-02-23T03:40:37;204.85;;;128.65;;
55330;SDS011;58851;42.984;20.336;2024-02-23T03:43:03;185.18;;;117.28;;
55330;SDS011;58851;42.984;20.336;2024-02-23T03:45:29;197.38;;;118.65;;
55330;SDS011;58851;42.984;20.336;2024-02-23T03:47:54;188.88;;;113.32;;
55330;SDS011;58851;42.984;20.336;2024-02-23T03:50:20;175.13;;;110.30;;
55330;SDS011;58851;42.984;20.336;2024-02-23T03:52:46;177.95;;;111.40;;
55330;SDS011;58851;42.984;20.336;2024-02-23T03:55:12;175.18;;;111.38;;
55330;SDS011;58851;42.984;20.336;2024-02-23T03:57:38;189.35;;;116.63;;
55330;SDS011;58851;42.984;20.336;2024-02-23T04:00:04;178.85;;;111.72;;
55330;SDS011;58851;42.984;20.336;2024-02-23T04:02:31;194.10;;;117.10;;
55330;SDS011;58851;42.984;20.336;2024-02-23T04:04:57;189.15;;;114.68;;
55330;SDS011;58851;42.984;20.336;2024-02-23T04:07:22;196.68;;;116.38;;
55330;SDS011;58851;42.984;20.336;2024-02-23T04:09:48;174.13;;;112.82;;
55330;SDS011;58851;42.984;20.336;2024-02-23T04:12:20;181.57;;;110.45;;
55330;SDS011;58851;42.984;20.336;2024-02-23T04:14:46;208.55;;;115.35;;
55330;SDS011;58851;42.984;20.336;2024-02-23T04:17:12;177.13;;;108.68;;
55330;SDS011;58851;42.984;20.336;2024-02-23T04:19:39;214.85;;;127.18;;
55330;SDS011;58851;42.984;20.336;2024-02-23T04:22:06;196.85;;;114.60;;
55330;SDS011;58851;42.984;20.336;2024-02-23T04:24:38;178.70;;;110.25;;
55330;SDS011;58851;42.984;20.336;2024-02-23T04:27:05;189.60;;;116.05;;
55330;SDS011;58851;42.984;20.336;2024-02-23T04:29:31;183.73;;;115.05;;
55330;SDS011;58851;42.984;20.336;2024-02-23T04:31:59;186.82;;;112.60;;
55330;SDS011;58851;42.984;20.336;2024-02-23T04:34:25;198.10;;;121.10;;
55330;SDS011;58851;42.984;20.336;2024-02-23T04:36:50;190.98;;;120.10;;
55330;SDS011;58851;42.984;20.336;2024-02-23T04:39:16;211.75;;;123.63;;
55330;SDS011;58851;42.984;20.336;2024-02-23T04:41:42;197.52;;;116.00;;
55330;SDS011;58851;42.984;20.336;2024-02-23T04:44:08;186.57;;;115.10;;
55330;SDS011;58851;42.984;20.336;2024-02-23T04:46:34;180.60;;;113.15;;
55330;SDS011;58851;42.984;20.336;2024-02-23T04:49:00;201.95;;;128.02;;
55330;SDS011;58851;42.984;20.336;2024-02-23T04:51:26;208.80;;;126.05;;
55330;SDS011;58851;42.984;20.336;2024-02-23T04:53:52;189.05;;;115.82;;
55330;SDS011;58851;42.984;20.336;2024-02-23T04:56:18;183.23;;;116.25;;
55330;SDS011;58851;42.984;20.336;2024-02-23T04:58:44;179.02;;;109.18;;
55330;SDS011;58851;42.984;20.336;2024-02-23T05:01:10;178.50;;;109.95;;
55330;SDS011;58851;42.984;20.336;2024-02-23T05:03:37;170.38;;;103.63;;
55330;SDS011;58851;42.984;20.336;2024-02-23T05:06:03;171.45;;;112.43;;
55330;SDS011;58851;42.984;20.336;2024-02-23T05:08:29;177.93;;;107.93;;
55330;SDS011;58851;42.984;20.336;2024-02-23T05:10:56;188.40;;;110.85;;
55330;SDS011;58851;42.984;20.336;2024-02-23T05:13:22;169.70;;;107.57;;
55330;SDS011;58851;42.984;20.336;2024-02-23T05:15:48;156.93;;;99.72;;
55330;SDS011;58851;42.984;20.336;2024-02-23T05:18:14;164.60;;;104.47;;
55330;SDS011;58851;42.984;20.336;2024-02-23T05:20:40;158.45;;;104.85;;
55330;SDS011;58851;42.984;20.336;2024-02-23T05:23:06;159.65;;;101.63;;
55330;SDS011;58851;42.984;20.336;2024-02-23T05:25:32;165.13;;;104.85;;
55330;SDS011;58851;42.984;20.336;2024-02-23T05:27:58;157.02;;;100.38;;
55330;SDS011;58851;42.984;20.336;2024-02-23T05:30:24;153.20;;;96.60;;
55330;SDS011;58851;42.984;20.336;2024-02-23T05:32:52;148.63;;;94.07;;
55330;SDS011;58851;42.984;20.336;2024-02-23T05:35:18;151.63;;;95.90;;
55330;SDS011;58851;42.984;20.336;2024-02-23T05:37:44;152.68;;;98.35;;
55330;SDS011;58851;42.984;20.336;2024-02-23T05:40:10;161.52;;;105.85;;
55330;SDS011;58851;42.984;20.336;2024-02-23T05:42:37;163.60;;;103.93;;
55330;SDS011;58851;42.984;20.336;2024-02-23T05:45:03;169.10;;;107.03;;
55330;SDS011;58851;42.984;20.336;2024-02-23T05:47:30;160.30;;;101.72;;
55330;SDS011;58851;42.984;20.336;2024-02-23T05:49:56;172.70;;;110.65;;
55330;SDS011;58851;42.984;20.336;2024-02-23T05:52:22;232.90;;;143.30;;
55330;SDS011;58851;42.984;20.336;2024-02-23T05:54:47;173.15;;;112.72;;
55330;SDS011;58851;42.984;20.336;2024-02-23T05:57:13;201.30;;;122.22;;
55330;SDS011;58851;42.984;20.336;2024-02-23T05:59:40;210.77;;;138.07;;
55330;SDS011;58851;42.984;20.336;2024-02-23T06:02:07;179.02;;;121.80;;
55330;SDS011;58851;42.984;20.336;2024-02-23T06:04:33;198.30;;;123.88;;
55330;SDS011;58851;42.984;20.336;2024-02-23T06:06:59;218.63;;;128.82;;
55330;SDS011;58851;42.984;20.336;2024-02-23T06:09:25;204.07;;;124.88;;
55330;SDS011;58851;42.984;20.336;2024-02-23T06:11:51;267.67;;;155.65;;
55330;SDS011;58851;42.984;20.336;2024-02-23T06:14:16;253.13;;;153.02;;
55330;SDS011;58851;42.984;20.336;2024-02-23T06:16:42;231.98;;;151.48;;
55330;SDS011;58851;42.984;20.336;2024-02-23T06:19:09;251.77;;;156.38;;
55330;SDS011;58851;42.984;20.336;2024-02-23T06:21:34;258.88;;;161.63;;
55330;SDS011;58851;42.984;20.336;2024-02-23T06:24:01;223.23;;;140.60;;
55330;SDS011;58851;42.984;20.336;2024-02-23T06:26:27;237.45;;;147.60;;
55330;SDS011;58851;42.984;20.336;2024-02-23T06:28:53;233.18;;;144.68;;
55330;SDS011;58851;42.984;20.336;2024-02-23T06:31:19;233.52;;;153.05;;
55330;SDS011;58851;42.984;20.336;2024-02-23T06:33:45;249.95;;;157.38;;
55330;SDS011;58851;42.984;20.336;2024-02-23T06:36:14;257.77;;;166.30;;
55330;SDS011;58851;42.984;20.336;2024-02-23T06:38:39;282.52;;;181.73;;
55330;SDS011;58851;42.984;20.336;2024-02-23T06:41:05;284.90;;;177.73;;
55330;SDS011;58851;42.984;20.336;2024-02-23T06:43:33;267.38;;;173.10;;
55330;SDS011;58851;42.984;20.336;2024-02-23T06:46:03;266.65;;;170.18;;
55330;SDS011;58851;42.984;20.336;2024-02-23T06:48:30;309.20;;;197.20;;
55330;SDS011;58851;42.984;20.336;2024-02-23T06:50:57;393.02;;;247.05;;
55330;SDS011;58851;42.984;20.336;2024-02-23T06:53:23;363.15;;;227.82;;
55330;SDS011;58851;42.984;20.336;2024-02-23T06:55:49;342.55;;;214.93;;
55330;SDS011;58851;42.984;20.336;2024-02-23T06:58:15;293.63;;;182.82;;
55330;SDS011;58851;42.984;20.336;2024-02-23T07:00:41;264.58;;;163.75;;
55330;SDS011;58851;42.984;20.336;2024-02-23T07:03:07;279.92;;;165.63;;
55330;SDS011;58851;42.984;20.336;2024-02-23T07:05:33;272.35;;;169.95;;
55330;SDS011;58851;42.984;20.336;2024-02-23T07:08:00;264.00;;;164.57;;
55330;SDS011;58851;42.984;20.336;2024-02-23T07:10:27;254.85;;;154.18;;
55330;SDS011;58851;42.984;20.336;2024-02-23T07:12:53;253.82;;;160.27;;
55330;SDS011;58851;42.984;20.336;2024-02-23T07:15:19;243.55;;;146.70;;
55330;SDS011;58851;42.984;20.336;2024-02-23T07:17:45;208.73;;;127.20;;
55330;SDS011;58851;42.984;20.336;2024-02-23T07:20:12;156.18;;;95.35;;
55330;SDS011;58851;42.984;20.336;2024-02-23T07:22:38;160.57;;;100.85;;
55330;SDS011;58851;42.984;20.336;2024-02-23T07:25:04;164.98;;;100.18;;
55330;SDS011;58851;42.984;20.336;2024-02-23T07:27:30;182.20;;;114.80;;
55330;SDS011;58851;42.984;20.336;2024-02-23T07:29:57;194.15;;;117.47;;
55330;SDS011;58851;42.984;20.336;2024-02-23T07:32:23;189.65;;;120.28;;
55330;SDS011;58851;42.984;20.336;2024-02-23T07:34:48;198.25;;;128.60;;
55330;SDS011;58851;42.984;20.336;2024-02-23T07:37:15;212.10;;;137.25;;
55330;SDS011;58851;42.984;20.336;2024-02-23T07:39:40;212.05;;;139.25;;
55330;SDS011;58851;42.984;20.336;2024-02-23T07:42:06;200.00;;;129.45;;
55330;SDS011;58851;42.984;20.336;2024-02-23T07:44:34;179.98;;;119.95;;
55330;SDS011;58851;42.984;20.336;2024-02-23T07:47:00;207.38;;;138.30;;
55330;SDS011;58851;42.984;20.336;2024-02-23T07:49:26;221.05;;;144.85;;
55330;SDS011;58851;42.984;20.336;2024-02-23T07:51:53;209.88;;;135.80;;
55330;SDS011;58851;42.984;20.336;2024-02-23T07:54:19;206.80;;;133.07;;
55330;SDS011;58851;42.984;20.336;2024-02-23T07:56:45;186.07;;;122.90;;
55330;SDS011;58851;42.984;20.336;2024-02-23T07:59:13;173.75;;;117.32;;
55330;SDS011;58851;42.984;20.336;2024-02-23T08:01:39;173.38;;;114.50;;
55330;SDS011;58851;42.984;20.336;2024-02-23T08:04:05;202.63;;;139.45;;
55330;SDS011;58851;42.984;20.336;2024-02-23T08:06:31;186.90;;;129.25;;
55330;SDS011;58851;42.984;20.336;2024-02-23T08:08:57;202.10;;;132.20;;
55330;SDS011;58851;42.984;20.336;2024-02-23T08:11:23;209.07;;;129.23;;
55330;SDS011;58851;42.984;20.336;2024-02-23T08:13:48;179.43;;;114.05;;
55330;SDS011;58851;42.984;20.336;2024-02-23T08:16:17;170.88;;;110.78;;
55330;SDS011;58851;42.984;20.336;2024-02-23T08:18:43;174.32;;;113.32;;
55330;SDS011;58851;42.984;20.336;2024-02-23T08:21:12;170.77;;;112.88;;
55330;SDS011;58851;42.984;20.336;2024-02-23T08:23:38;172.65;;;115.32;;
55330;SDS011;58851;42.984;20.336;2024-02-23T08:26:04;193.70;;;121.60;;
55330;SDS011;58851;42.984;20.336;2024-02-23T08:28:31;178.55;;;116.30;;
55330;SDS011;58851;42.984;20.336;2024-02-23T08:30:57;166.85;;;105.20;;
55330;SDS011;58851;42.984;20.336;2024-02-23T08:33:22;142.10;;;92.22;;
55330;SDS011;58851;42.984;20.336;2024-02-23T08:35:48;109.25;;;72.57;;
55330;SDS011;58851;42.984;20.336;2024-02-23T08:38:14;90.03;;;60.20;;
55330;SDS011;58851;42.984;20.336;2024-02-23T08:40:40;105.20;;;70.78;;
55330;SDS011;58851;42.984;20.336;2024-02-23T08:43:07;125.30;;;85.70;;
55330;SDS011;58851;42.984;20.336;2024-02-23T08:45:32;110.47;;;78.72;;
55330;SDS011;58851;42.984;20.336;2024-02-23T08:47:58;91.90;;;61.55;;
55330;SDS011;58851;42.984;20.336;2024-02-23T08:50:24;86.38;;;60.58;;
55330;SDS011;58851;42.984;20.336;2024-02-23T08:52:50;184.10;;;112.75;;
55330;SDS011;58851;42.984;20.336;2024-02-23T08:55:15;143.05;;;92.68;;
55330;SDS011;58851;42.984;20.336;2024-02-23T08:57:41;118.13;;;81.47;;
55330;SDS011;58851;42.984;20.336;2024-02-23T09:00:07;114.15;;;79.18;;
55330;SDS011;58851;42.984;20.336;2024-02-23T09:02:34;104.50;;;56.85;;
55330;SDS011;58851;42.984;20.336;2024-02-23T09:05:03;93.57;;;67.25;;
55330;SDS011;58851;42.984;20.336;2024-02-23T09:07:29;104.82;;;72.40;;
55330;SDS011;58851;42.984;20.336;2024-02-23T09:09:55;107.20;;;69.03;;
55330;SDS011;58851;42.984;20.336;2024-02-23T09:12:22;75.20;;;52.88;;
55330;SDS011;58851;42.984;20.336;2024-02-23T09:14:48;72.15;;;51.25;;
55330;SDS011;58851;42.984;20.336;2024-02-23T09:17:13;79.78;;;54.42;;
55330;SDS011;58851;42.984;20.336;2024-02-23T09:19:39;91.07;;;62.78;;
55330;SDS011;58851;42.984;20.336;2024-02-23T09:22:05;101.57;;;71.60;;
55330;SDS011;58851;42.984;20.336;2024-02-23T09:24:31;104.40;;;71.72;;
55330;SDS011;58851;42.984;20.336;2024-02-23T09:26:57;131.38;;;90.43;;
55330;SDS011;58851;42.984;20.336;2024-02-23T09:29:22;141.25;;;95.40;;
55330;SDS011;58851;42.984;20.336;2024-02-23T09:31:48;146.73;;;101.45;;
55330;SDS011;58851;42.984;20.336;2024-02-23T09:34:14;135.38;;;95.95;;
55330;SDS011;58851;42.984;20.336;2024-02-23T09:36:40;165.35;;;111.63;;
55330;SDS011;58851;42.984;20.336;2024-02-23T09:39:06;202.93;;;143.63;;
55330;SDS011;58851;42.984;20.336;2024-02-23T09:41:32;198.02;;;134.60;;
55330;SDS011;58851;42.984;20.336;2024-02-23T09:44:00;173.45;;;116.57;;
55330;SDS011;58851;42.984;20.336;2024-02-23T09:46:27;133.73;;;96.60;;
55330;SDS011;58851;42.984;20.336;2024-02-23T09:48:54;147.77;;;96.43;;
55330;SDS011;58851;42.984;20.336;2024-02-23T09:51:21;155.07;;;99.15;;
55330;SDS011;58851;42.984;20.336;2024-02-23T09:53:49;136.55;;;93.30;;
55330;SDS011;58851;42.984;20.336;2024-02-23T09:56:16;134.13;;;85.80;;
55330;SDS011;58851;42.984;20.336;2024-02-23T09:58:44;135.57;;;87.20;;
55330;SDS011;58851;42.984;20.336;2024-02-23T10:01:12;136.38;;;89.72;;
55330;SDS011;58851;42.984;20.336;2024-02-23T10:03:43;126.05;;;85.88;;
55330;SDS011;58851;42.984;20.336;2024-02-23T10:06:10;126.15;;;76.40;;
55330;SDS011;58851;42.984;20.336;2024-02-23T10:08:36;109.32;;;67.93;;
55330;SDS011;58851;42.984;20.336;2024-02-23T10:11:02;106.03;;;71.30;;
55330;SDS011;58851;42.984;20.336;2024-02-23T10:13:29;74.55;;;52.20;;
55330;SDS011;58851;42.984;20.336;2024-02-23T10:15:54;67.22;;;45.97;;
55330;SDS011;58851;42.984;20.336;2024-02-23T10:18:20;68.00;;;45.28;;
55330;SDS011;58851;42.984;20.336;2024-02-23T10:20:46;68.45;;;45.08;;
55330;SDS011;58851;42.984;20.336;2024-02-23T10:23:15;87.45;;;56.85;;
55330;SDS011;58851;42.984;20.336;2024-02-23T10:25:41;82.20;;;55.03;;
55330;SDS011;58851;42.984;20.336;2024-02-23T10:28:07;63.83;;;40.20;;
55330;SDS011;58851;42.984;20.336;2024-02-23T10:30:34;35.13;;;20.95;;
55330;SDS011;58851;42.984;20.336;2024-02-23T10:33:06;28.15;;;16.15;;
55330;SDS011;58851;42.984;20.336;2024-02-23T10:35:31;21.52;;;13.50;;
55330;SDS011;58851;42.984;20.336;2024-02-23T10:38:00;19.85;;;12.75;;
55330;SDS011;58851;42.984;20.336;2024-02-23T10:40:29;19.13;;;11.07;;
55330;SDS011;58851;42.984;20.336;2024-02-23T10:42:56;16.63;;;9.80;;
55330;SDS011;58851;42.984;20.336;2024-02-23T10:45:28;34.22;;;19.77;;
55330;SDS011;58851;42.984;20.336;2024-02-23T10:47:54;39.00;;;23.58;;
55330;SDS011;58851;42.984;20.336;2024-02-23T10:50:21;21.15;;;12.85;;
55330;SDS011;58851;42.984;20.336;2024-02-23T10:52:48;34.40;;;20.58;;
55330;SDS011;58851;42.984;20.336;2024-02-23T10:55:15;32.22;;;18.55;;
55330;SDS011;58851;42.984;20.336;2024-02-23T10:57:41;24.98;;;14.38;;
55330;SDS011;58851;42.984;20.336;2024-02-23T11:00:08;28.48;;;18.27;;
55330;SDS011;58851;42.984;20.336;2024-02-23T11:02:43;39.08;;;23.13;;
55330;SDS011;58851;42.984;20.336;2024-02-23T11:05:12;34.28;;;19.10;;
55330;SDS011;58851;42.984;20.336;2024-02-23T11:07:39;23.00;;;14.15;;
55330;SDS011;58851;42.984;20.336;2024-02-23T11:10:06;23.83;;;14.88;;
55330;SDS011;58851;42.984;20.336;2024-02-23T11:12:34;19.48;;;11.75;;
55330;SDS011;58851;42.984;20.336;2024-02-23T11:15:00;13.48;;;8.90;;
55330;SDS011;58851;42.984;20.336;2024-02-23T11:17:27;9.23;;;6.75;;
55330;SDS011;58851;42.984;20.336;2024-02-23T11:19:55;8.80;;;6.07;;
55330;SDS011;58851;42.984;20.336;2024-02-23T11:22:31;10.85;;;6.20;;
55330;SDS011;58851;42.984;20.336;2024-02-23T11:25:03;11.40;;;7.65;;
55330;SDS011;58851;42.984;20.336;2024-02-23T11:27:31;13.15;;;8.15;;
55330;SDS011;58851;42.984;20.336;2024-02-23T11:30:05;32.80;;;21.65;;
55330;SDS011;58851;42.984;20.336;2024-02-23T11:32:40;34.85;;;21.55;;
55330;SDS011;58851;42.984;20.336;2024-02-23T11:35:08;21.23;;;14.35;;
55330;SDS011;58851;42.984;20.336;2024-02-23T11:40:14;12.13;;;7.43;;
55330;SDS011;58851;42.984;20.336;2024-02-23T11:42:43;21.42;;;13.55;;
55330;SDS011;58851;42.984;20.336;2024-02-23T11:45:09;12.20;;;8.50;;
55330;SDS011;58851;42.984;20.336;2024-02-23T11:47:38;21.20;;;12.50;;
55330;SDS011;58851;42.984;20.336;2024-02-23T11:50:07;20.38;;;11.70;;
55330;SDS011;58851;42.984;20.336;2024-02-23T11:52:35;43.20;;;26.52;;
55330;SDS011;58851;42.984;20.336;2024-02-23T11:55:04;49.50;;;30.50;;
55330;SDS011;58851;42.984;20.336;2024-02-23T11:57:31;34.67;;;24.30;;
55330;SDS011;58851;42.984;20.336;2024-02-23T11:59:58;23.55;;;14.35;;
55330;SDS011;58851;42.984;20.336;2024-02-23T12:02:31;18.27;;;12.90;;
55330;SDS011;58851;42.984;20.336;2024-02-23T12:05:00;10.13;;;7.50;;
55330;SDS011;58851;42.984;20.336;2024-02-23T12:07:26;14.25;;;9.32;;
55330;SDS011;58851;42.984;20.336;2024-02-23T12:09:56;16.25;;;8.38;;
55330;SDS011;58851;42.984;20.336;2024-02-23T12:12:22;15.80;;;10.00;;
55330;SDS011;58851;42.984;20.336;2024-02-23T12:14:52;18.80;;;11.85;;
55330;SDS011;58851;42.984;20.336;2024-02-23T12:17:18;22.85;;;10.18;;
55330;SDS011;58851;42.984;20.336;2024-02-23T12:19:44;22.77;;;11.80;;
55330;SDS011;58851;42.984;20.336;2024-02-23T12:22:10;24.65;;;15.23;;
55330;SDS011;58851;42.984;20.336;2024-02-23T12:24:37;25.73;;;16.40;;
55330;SDS011;58851;42.984;20.336;2024-02-23T12:27:03;28.05;;;16.30;;
55330;SDS011;58851;42.984;20.336;2024-02-23T12:29:31;25.52;;;17.67;;
55330;SDS011;58851;42.984;20.336;2024-02-23T12:32:03;34.70;;;20.92;;
55330;SDS011;58851;42.984;20.336;2024-02-23T12:34:29;34.38;;;18.98;;
55330;SDS011;58851;42.984;20.336;2024-02-23T12:36:55;27.17;;;15.93;;
55330;SDS011;58851;42.984;20.336;2024-02-23T12:39:21;34.45;;;23.08;;
55330;SDS011;58851;42.984;20.336;2024-02-23T12:41:47;44.83;;;26.67;;
55330;SDS011;58851;42.984;20.336;2024-02-23T12:44:13;32.78;;;18.92;;
55330;SDS011;58851;42.984;20.336;2024-02-23T12:46:39;33.88;;;18.40;;
55330;SDS011;58851;42.984;20.336;2024-02-23T12:49:05;28.45;;;17.23;;
55330;SDS011;58851;42.984;20.336;2024-02-23T12:51:31;22.75;;;13.48;;
55330;SDS011;58851;42.984;20.336;2024-02-23T12:53:57;25.70;;;12.63;;
55330;SDS011;58851;42.984;20.336;2024-02-23T12:56:23;16.23;;;9.98;;
55330;SDS011;58851;42.984;20.336;2024-02-23T12:58:50;16.02;;;10.85;;
55330;SDS011;58851;42.984;20.336;2024-02-23T13:01:16;33.65;;;17.55;;
55330;SDS011;58851;42.984;20.336;2024-02-23T13:03:43;31.98;;;18.77;;
55330;SDS011;58851;42.984;20.336;2024-02-23T13:06:09;33.35;;;19.02;;
55330;SDS011;58851;42.984;20.336;2024-02-23T13:08:35;18.80;;;11.23;;
55330;SDS011;58851;42.984;20.336;2024-02-23T13:11:00;18.65;;;11.02;;
55330;SDS011;58851;42.984;20.336;2024-02-23T13:13:27;24.67;;;17.02;;
55330;SDS011;58851;42.984;20.336;2024-02-23T13:15:54;27.85;;;17.23;;
55330;SDS011;58851;42.984;20.336;2024-02-23T13:18:20;26.02;;;16.35;;
55330;SDS011;58851;42.984;20.336;2024-02-23T13:20:46;22.23;;;13.27;;
55330;SDS011;58851;42.984;20.336;2024-02-23T13:23:12;23.65;;;12.32;;
55330;SDS011;58851;42.984;20.336;2024-02-23T13:25:40;19.13;;;12.55;;
55330;SDS011;58851;42.984;20.336;2024-02-23T13:28:07;23.05;;;15.27;;
55330;SDS011;58851;42.984;20.336;2024-02-23T13:30:33;30.00;;;18.88;;
55330;SDS011;58851;42.984;20.336;2024-02-23T13:33:00;37.38;;;18.77;;
55330;SDS011;58851;42.984;20.336;2024-02-23T13:35:25;15.15;;;7.93;;
55330;SDS011;58851;42.984;20.336;2024-02-23T13:37:52;13.63;;;6.95;;
55330;SDS011;58851;42.984;20.336;2024-02-23T13:40:18;21.98;;;15.00;;
55330;SDS011;58851;42.984;20.336;2024-02-23T13:42:44;16.30;;;9.85;;
55330;SDS011;58851;42.984;20.336;2024-02-23T13:45:18;14.85;;;7.75;;
55330;SDS011;58851;42.984;20.336;2024-02-23T13:47:55;11.85;;;6.95;;
55330;SDS011;58851;42.984;20.336;2024-02-23T13:50:25;13.15;;;8.20;;
55330;SDS011;58851;42.984;20.336;2024-02-23T13:52:52;14.68;;;8.85;;